Time;durP1;ratioP1;P1;durP2;ratioP2;P2;SDS_P1;SDS_P2;PMS_P1;PMS_P2;Temp;Humidity;BMP_temperature;BMP_pressure;BME280_temperature;BME280_humidity;BME280_pressure;Samples;Min_cycle;Max_cycle;Signal;HPM_P1;HPM_P2
2021/11/07 00:00:56;;;;;;;5.70;3.10;;;;;;;;;;5054676;28;20033;-75
2021/11/07 00:03:27;;;;;;;4.65;2.78;;;;;;;;;;5054684;28;20044;-75
2021/11/07 00:08:37;;;;;;;3.75;2.40;;;;;;;;;;5055881;28;20048;-75
2021/11/07 00:11:09;;;;;;;5.75;2.70;;;;;;;;;;5054826;28;20041;-75
2021/11/07 00:13:35;;;;;;;3.97;2.33;;;;;;;;;;5055699;28;20043;-75
2021/11/07 00:16:06;;;;;;;4.80;2.70;;;;;;;;;;5055859;28;20025;-74
2021/11/07 00:18:37;;;;;;;7.10;2.70;;;;;;;;;;5055759;28;20036;-75
2021/11/07 00:21:09;;;;;;;6.82;2.65;;;;;;;;;;5054772;28;20115;-74
2021/11/07 00:26:13;;;;;;;6.15;2.58;;;;;;;;;;5055782;28;20451;-75
2021/11/07 00:28:44;;;;;;;5.82;3.15;;;;;;;;;;5054513;28;20044;-75
2021/11/07 00:38:41;;;;;;;8.45;2.60;;;;;;;;;;5055746;28;20033;-75
2021/11/07 00:43:53;;;;;;;5.47;2.25;;;;;;;;;;5055057;28;19921;-74
2021/11/07 00:46:38;;;;;;;7.45;2.75;;;;;;;;;;5052925;28;20033;-74
2021/11/07 00:49:12;;;;;;;4.93;2.50;;;;;;;;;;5055259;28;20463;-75
2021/11/07 00:54:25;;;;;;;7.28;2.85;;;;;;;;;;5055055;28;20068;-75
2021/11/07 00:56:54;;;;;;;3.70;2.22;;;;;;;;;;5055178;28;20038;-75
2021/11/07 01:02:01;;;;;;;10.23;2.72;;;;;;;;;;5054515;28;20546;-74
2021/11/07 01:04:29;;;;;;;5.35;2.58;;;;;;;;;;5054467;28;20500;-75
2021/11/07 01:06:54;;;;;;;4.03;2.30;;;;;;;;;;5054958;28;20521;-74
2021/11/07 01:09:20;;;;;;;5.40;2.40;;;;;;;;;;5054756;28;20028;-74
2021/11/07 01:11:46;;;;;;;5.70;2.58;;;;;;;;;;5054676;28;20132;-75
2021/11/07 01:14:12;;;;;;;5.75;2.50;;;;;;;;;;5054405;28;20047;-74
2021/11/07 01:16:38;;;;;;;5.32;2.25;;;;;;;;;;5053137;28;20025;-75
2021/11/07 01:19:04;;;;;;;4.22;2.30;;;;;;;;;;5054704;28;20036;-75
2021/11/07 01:21:34;;;;;;;6.72;2.30;;;;;;;;;;5054662;28;20040;-75
2021/11/07 01:24:03;;;;;;;3.47;2.00;;;;;;;;;;5053568;28;20111;-74
2021/11/07 01:26:36;;;;;;;3.97;2.17;;;;;;;;;;5054358;28;20474;-75
2021/11/07 01:29:10;;;;;;;3.65;2.20;;;;;;;;;;5053123;28;20033;-74
2021/11/07 01:31:38;;;;;;;8.77;2.60;;;;;;;;;;5052060;28;20037;-74
2021/11/07 01:34:04;;;;;;;6.68;2.10;;;;;;;;;;5052116;28;20036;-74
2021/11/07 01:36:49;;;;;;;7.20;2.22;;;;;;;;;;5054634;28;20391;-75
2021/11/07 01:39:39;;;;;;;3.33;1.83;;;;;;;;;;5052958;28;20036;-74
2021/11/07 01:42:16;;;;;;;4.85;1.75;;;;;;;;;;5053807;28;20053;-75
2021/11/07 01:44:58;;;;;;;7.22;2.13;;;;;;;;;;5054073;28;20099;-74
2021/11/07 01:47:25;;;;;;;2.53;1.77;;;;;;;;;;5052681;28;20052;-74
2021/11/07 01:49:51;;;;;;;2.83;1.98;;;;;;;;;;5054119;28;20035;-75
2021/11/07 01:52:17;;;;;;;3.88;1.73;;;;;;;;;;5035838;28;20048;-74
2021/11/07 01:54:53;;;;;;;7.90;2.08;;;;;;;;;;5053807;28;20036;-74
2021/11/07 01:57:27;;;;;;;3.72;1.73;;;;;;;;;;5052875;28;20025;-75
2021/11/07 01:59:57;;;;;;;6.60;1.92;;;;;;;;;;5053554;28;20044;-75
2021/11/07 02:02:29;;;;;;;1.83;1.30;;;;;;;;;;5053651;28;20041;-74
2021/11/07 02:04:55;;;;;;;5.10;1.50;;;;;;;;;;5053861;28;20120;-74
2021/11/07 02:07:20;;;;;;;3.60;1.60;;;;;;;;;;5053809;28;20470;-75
2021/11/07 02:09:46;;;;;;;4.78;1.70;;;;;;;;;;5052436;28;20086;-75
2021/11/07 02:12:12;;;;;;;2.67;1.30;;;;;;;;;;5053903;28;20356;-75
2021/11/07 02:14:38;;;;;;;2.72;1.63;;;;;;;;;;5053250;28;20041;-75
2021/11/07 02:17:04;;;;;;;6.32;2.00;;;;;;;;;;5053631;28;20033;-75
2021/11/07 02:19:30;;;;;;;5.47;1.48;;;;;;;;;;5053290;28;20120;-74
2021/11/07 02:21:56;;;;;;;5.60;1.70;;;;;;;;;;5053493;28;20063;-75
2021/11/07 02:24:21;;;;;;;3.13;1.80;;;;;;;;;;5052243;28;20432;-74
2021/11/07 02:26:53;;;;;;;3.22;1.70;;;;;;;;;;5053479;28;20033;-74
2021/11/07 02:29:20;;;;;;;4.93;1.70;;;;;;;;;;5053032;28;20037;-74
2021/11/07 02:31:45;;;;;;;3.78;1.60;;;;;;;;;;5052528;28;20406;-74
2021/11/07 02:34:11;;;;;;;3.40;1.50;;;;;;;;;;5051785;28;20499;-75
2021/11/07 02:36:36;;;;;;;4.20;1.60;;;;;;;;;;5052453;28;20036;-75
2021/11/07 02:39:03;;;;;;;5.15;1.70;;;;;;;;;;5053005;28;20045;-74
2021/11/07 02:41:28;;;;;;;4.13;1.88;;;;;;;;;;5053149;28;20415;-75
2021/11/07 02:43:54;;;;;;;2.75;1.77;;;;;;;;;;5051720;28;20069;-74
2021/11/07 02:46:21;;;;;;;3.80;1.85;;;;;;;;;;5053097;28;20162;-75
2021/11/07 02:48:51;;;;;;;7.68;1.70;;;;;;;;;;5053155;28;20111;-75
2021/11/07 02:51:21;;;;;;;6.03;3.35;;;;;;;;;;5053342;28;20039;-75
2021/11/07 02:53:47;;;;;;;4.90;1.65;;;;;;;;;;5052795;28;20127;-75
2021/11/07 02:56:14;;;;;;;3.33;1.50;;;;;;;;;;5052892;28;20104;-75
2021/11/07 02:58:40;;;;;;;3.22;1.50;;;;;;;;;;5052262;28;20045;-74
2021/11/07 03:01:06;;;;;;;3.97;1.40;;;;;;;;;;5053304;28;20544;-75
2021/11/07 03:03:32;;;;;;;3.92;1.65;;;;;;;;;;5053172;28;20072;-75
2021/11/07 03:06:00;;;;;;;4.40;1.73;;;;;;;;;;5053128;28;20037;-74
2021/11/07 03:08:26;;;;;;;3.63;1.70;;;;;;;;;;5051724;28;20059;-74
2021/11/07 03:10:51;;;;;;;2.35;1.48;;;;;;;;;;5052997;28;20032;-75
2021/11/07 03:13:19;;;;;;;2.53;1.30;;;;;;;;;;5052831;28;20033;-74
2021/11/07 03:15:45;;;;;;;3.70;1.50;;;;;;;;;;5051824;28;20052;-74
2021/11/07 03:18:11;;;;;;;4.57;1.30;;;;;;;;;;5052887;28;20107;-74
2021/11/07 03:20:37;;;;;;;7.43;1.50;;;;;;;;;;5052842;28;20095;-74
2021/11/07 03:23:04;;;;;;;2.17;1.25;;;;;;;;;;5052587;28;20041;-75
2021/11/07 03:25:30;;;;;;;4.78;1.60;;;;;;;;;;5051469;28;20029;-74
2021/11/07 03:27:56;;;;;;;4.68;1.50;;;;;;;;;;5052725;28;20044;-75
2021/11/07 03:30:42;;;;;;;2.95;1.30;;;;;;;;;;5052549;28;20056;-74
2021/11/07 03:33:33;;;;;;;3.75;1.38;;;;;;;;;;5052776;28;20047;-75
2021/11/07 03:35:54;;;;;;;2.72;1.30;;;;;;;;;;5052523;28;20103;-75
2021/11/07 03:38:21;;;;;;;4.50;1.33;;;;;;;;;;5052530;28;20086;-75
2021/11/07 03:40:47;;;;;;;5.28;1.50;;;;;;;;;;5051628;28;20467;-75
2021/11/07 03:43:12;;;;;;;2.50;1.10;;;;;;;;;;5052286;28;20406;-75
2021/11/07 03:45:38;;;;;;;3.67;1.52;;;;;;;;;;5052348;28;20043;-75
2021/11/07 03:48:04;;;;;;;3.08;1.73;;;;;;;;;;5052550;28;20504;-75
2021/11/07 03:50:30;;;;;;;1.73;1.10;;;;;;;;;;5052531;28;20045;-75
2021/11/07 03:52:56;;;;;;;2.75;1.15;;;;;;;;;;5052391;28;20045;-75
2021/11/07 03:55:22;;;;;;;5.05;1.15;;;;;;;;;;5052222;28;20134;-75
2021/11/07 03:57:47;;;;;;;2.08;1.20;;;;;;;;;;5055278;28;20036;-75
2021/11/07 04:00:16;;;;;;;1.90;1.10;;;;;;;;;;5056172;28;20029;-75
2021/11/07 04:02:41;;;;;;;3.47;1.35;;;;;;;;;;5056202;28;20045;-76
2021/11/07 04:05:09;;;;;;;2.63;1.23;;;;;;;;;;5056108;28;20437;-75
2021/11/07 04:07:36;;;;;;;2.40;1.38;;;;;;;;;;5056075;28;20467;-75
2021/11/07 04:10:04;;;;;;;3.17;1.38;;;;;;;;;;5055766;28;20033;-76
2021/11/07 04:12:29;;;;;;;2.25;1.10;;;;;;;;;;5055996;28;20047;-75
2021/11/07 04:14:55;;;;;;;1.85;1.00;;;;;;;;;;5055836;28;20045;-75
2021/11/07 04:17:20;;;;;;;1.83;1.00;;;;;;;;;;5053796;28;20029;-75
2021/11/07 04:19:45;;;;;;;2.42;1.08;;;;;;;;;;5054606;28;20124;-75
2021/11/07 04:22:12;;;;;;;2.42;1.10;;;;;;;;;;5055664;28;20056;-75
2021/11/07 04:24:38;;;;;;;4.30;1.38;;;;;;;;;;5055213;28;20040;-75
2021/11/07 04:27:04;;;;;;;3.83;1.33;;;;;;;;;;5055821;28;20037;-75
2021/11/07 04:29:30;;;;;;;0.90;0.90;;;;;;;;;;5055654;28;20040;-75
2021/11/07 04:31:56;;;;;;;1.50;1.00;;;;;;;;;;5054637;28;20060;-75
2021/11/07 04:34:22;;;;;;;2.45;1.25;;;;;;;;;;5055307;28;20375;-75
2021/11/07 04:36:47;;;;;;;3.72;1.27;;;;;;;;;;5055625;28;20028;-75
2021/11/07 04:39:12;;;;;;;2.30;1.00;;;;;;;;;;5054729;28;20526;-75
2021/11/07 04:41:38;;;;;;;1.13;0.90;;;;;;;;;;5055002;28;20041;-76
2021/11/07 04:44:04;;;;;;;2.33;0.93;;;;;;;;;;5055253;28;20039;-75
2021/11/07 04:46:29;;;;;;;1.50;1.00;;;;;;;;;;5055196;28;20127;-75
2021/11/07 04:48:55;;;;;;;1.63;0.90;;;;;;;;;;5055317;28;20105;-75
2021/11/07 04:51:21;;;;;;;2.10;1.00;;;;;;;;;;5055327;28;20043;-75
2021/11/07 04:53:46;;;;;;;5.85;1.13;;;;;;;;;;5055058;28;20064;-75
2021/11/07 04:56:13;;;;;;;2.80;1.40;;;;;;;;;;5055004;28;20087;-75
2021/11/07 04:58:38;;;;;;;2.38;1.17;;;;;;;;;;5055000;28;20024;-75
2021/11/07 05:01:05;;;;;;;1.88;1.10;;;;;;;;;;5054717;28;20594;-75
2021/11/07 05:03:31;;;;;;;3.40;1.20;;;;;;;;;;5054843;28;20624;-75
2021/11/07 05:05:57;;;;;;;3.03;1.50;;;;;;;;;;5054832;28;20040;-75
2021/11/07 05:08:23;;;;;;;1.70;1.10;;;;;;;;;;5054825;28;20048;-75
2021/11/07 05:10:49;;;;;;;3.80;0.85;;;;;;;;;;5054587;28;20116;-74
2021/11/07 05:13:14;;;;;;;1.58;1.00;;;;;;;;;;5054744;28;20163;-75
2021/11/07 05:15:40;;;;;;;3.63;0.90;;;;;;;;;;5053601;28;20108;-75
2021/11/07 05:18:05;;;;;;;1.25;1.00;;;;;;;;;;5053828;28;20041;-75
2021/11/07 05:20:31;;;;;;;3.22;1.00;;;;;;;;;;5054854;28;20052;-75
2021/11/07 05:22:57;;;;;;;2.17;1.17;;;;;;;;;;5053323;28;20124;-74
2021/11/07 05:25:23;;;;;;;1.73;0.93;;;;;;;;;;5054363;28;20449;-75
2021/11/07 05:27:48;;;;;;;3.70;1.35;;;;;;;;;;5054390;28;20045;-76
2021/11/07 05:30:17;;;;;;;1.65;1.10;;;;;;;;;;5054443;28;20048;-75
2021/11/07 05:32:45;;;;;;;0.98;0.90;;;;;;;;;;5054195;28;20039;-75
2021/11/07 05:35:13;;;;;;;2.00;1.00;;;;;;;;;;5054283;28;20417;-75
2021/11/07 05:37:38;;;;;;;5.18;1.05;;;;;;;;;;5053448;28;20127;-75
2021/11/07 05:40:08;;;;;;;2.80;1.00;;;;;;;;;;5053358;28;20113;-75
2021/11/07 05:42:34;;;;;;;1.58;1.02;;;;;;;;;;5054214;28;20057;-76
2021/11/07 05:45:00;;;;;;;3.30;0.93;;;;;;;;;;5054086;28;20029;-76
2021/11/07 05:47:26;;;;;;;4.30;1.27;;;;;;;;;;5054071;28;20040;-76
2021/11/07 05:49:51;;;;;;;1.77;1.20;;;;;;;;;;5052316;28;20090;-75
2021/11/07 05:52:17;;;;;;;2.00;1.30;;;;;;;;;;5052842;28;20039;-75
2021/11/07 05:54:43;;;;;;;2.15;1.20;;;;;;;;;;5053318;28;20036;-75
2021/11/07 05:57:09;;;;;;;1.30;1.00;;;;;;;;;;5053869;28;20028;-75
2021/11/07 05:59:34;;;;;;;4.22;1.00;;;;;;;;;;5053833;28;20066;-75
2021/11/07 06:02:00;;;;;;;4.38;1.05;;;;;;;;;;5054701;28;20045;-76
2021/11/07 06:04:26;;;;;;;1.40;1.10;;;;;;;;;;5053669;28;20048;-76
2021/11/07 06:06:51;;;;;;;1.30;1.05;;;;;;;;;;5052448;28;20463;-76
2021/11/07 06:09:17;;;;;;;1.20;1.00;;;;;;;;;;5053650;28;20037;-76
2021/11/07 06:11:42;;;;;;;1.48;0.98;;;;;;;;;;5053361;28;20039;-76
2021/11/07 06:14:07;;;;;;;3.80;1.10;;;;;;;;;;5053495;28;20483;-76
2021/11/07 06:16:33;;;;;;;5.50;0.88;;;;;;;;;;5053929;28;20041;-77
2021/11/07 06:18:58;;;;;;;1.63;0.80;;;;;;;;;;5058686;28;20089;-80
2021/11/07 06:21:24;;;;;;;3.35;1.15;;;;;;;;;;5053033;28;20478;-77
2021/11/07 06:23:50;;;;;;;1.65;1.02;;;;;;;;;;5053824;28;20463;-77
2021/11/07 06:26:16;;;;;;;1.25;1.00;;;;;;;;;;5052533;28;20052;-76
2021/11/07 06:28:42;;;;;;;2.28;1.00;;;;;;;;;;5052523;28;20095;-76
2021/11/07 06:31:09;;;;;;;2.25;1.20;;;;;;;;;;5054014;28;20466;-76
2021/11/07 06:33:35;;;;;;;2.17;1.17;;;;;;;;;;5052801;28;20894;-76
2021/11/07 06:36:02;;;;;;;3.80;1.20;;;;;;;;;;5053597;28;20033;-76
2021/11/07 06:38:27;;;;;;;2.08;0.93;;;;;;;;;;5053293;28;20036;-76
2021/11/07 06:40:54;;;;;;;2.35;1.30;;;;;;;;;;5052234;28;20045;-76
2021/11/07 06:43:19;;;;;;;1.08;1.00;;;;;;;;;;5052129;28;20057;-77
2021/11/07 06:45:45;;;;;;;1.58;1.10;;;;;;;;;;5055351;28;20041;-76
2021/11/07 06:48:10;;;;;;;1.15;0.90;;;;;;;;;;5053165;28;20040;-77
2021/11/07 06:50:36;;;;;;;2.40;1.42;;;;;;;;;;5053425;28;20044;-77
2021/11/07 06:53:02;;;;;;;5.07;1.45;;;;;;;;;;5053195;28;20079;-76
2021/11/07 06:55:28;;;;;;;1.63;1.38;;;;;;;;;;5052917;28;20033;-76
2021/11/07 06:57:53;;;;;;;1.42;1.30;;;;;;;;;;5053203;28;20037;-76
2021/11/07 07:00:23;;;;;;;1.38;1.13;;;;;;;;;;5053077;28;20115;-76
2021/11/07 07:02:48;;;;;;;1.33;1.20;;;;;;;;;;5052916;28;20037;-75
2021/11/07 07:05:17;;;;;;;3.20;1.17;;;;;;;;;;5052969;28;20043;-75
2021/11/07 07:07:46;;;;;;;1.50;1.13;;;;;;;;;;5052858;28;20076;-75
2021/11/07 07:10:20;;;;;;;5.57;2.05;;;;;;;;;;5052657;28;20041;-77
2021/11/07 07:12:55;;;;;;;5.07;1.40;;;;;;;;;;5051500;28;20040;-76
2021/11/07 07:15:32;;;;;;;2.70;1.40;;;;;;;;;;5034808;28;20078;-76
2021/11/07 07:26:00;;;;;;;2.00;1.60;;;;;;;;;;5052899;28;20076;-76
2021/11/07 07:29:35;;;;;;;2.63;1.67;;;;;;;;;;5051625;28;20099;-76
2021/11/07 07:31:31;;;;;;;4.70;2.15;;;;;;;;;;5052480;28;20071;-76
2021/11/07 07:34:08;;;;;;;5.72;1.75;;;;;;;;;;5055555;28;20033;-77
2021/11/07 07:36:34;;;;;;;6.65;2.60;;;;;;;;;;5055823;28;20441;-77
2021/11/07 07:39:00;;;;;;;4.25;2.20;;;;;;;;;;5056452;28;20037;-77
2021/11/07 07:41:26;;;;;;;2.17;1.70;;;;;;;;;;5055226;28;20402;-77
2021/11/07 07:43:53;;;;;;;3.97;1.70;;;;;;;;;;5054652;28;20024;-77
2021/11/07 07:46:22;;;;;;;3.45;2.00;;;;;;;;;;5056365;28;20037;-77
2021/11/07 07:48:48;;;;;;;4.47;2.05;;;;;;;;;;5056477;28;20485;-77
2021/11/07 07:51:17;;;;;;;2.60;2.00;;;;;;;;;;5056484;28;20040;-77
2021/11/07 07:53:45;;;;;;;2.83;1.80;;;;;;;;;;5056188;28;20450;-77
2021/11/07 07:56:11;;;;;;;4.00;2.22;;;;;;;;;;5056476;28;20079;-76
2021/11/07 07:58:37;;;;;;;4.15;1.80;;;;;;;;;;5056502;28;20029;-76
2021/11/07 08:01:05;;;;;;;4.25;1.75;;;;;;;;;;5056305;28;20139;-77
2021/11/07 08:03:31;;;;;;;3.58;2.25;;;;;;;;;;5056533;28;20031;-77
2021/11/07 08:05:57;;;;;;;2.53;1.85;;;;;;;;;;5056273;28;20048;-77
2021/11/07 08:08:22;;;;;;;2.53;1.80;;;;;;;;;;5056114;28;20037;-77
2021/11/07 08:10:48;;;;;;;3.75;2.40;;;;;;;;;;5075779;28;20453;-77
2021/11/07 08:13:13;;;;;;;2.65;1.70;;;;;;;;;;5076019;28;20044;-77
2021/11/07 08:15:39;;;;;;;5.80;1.80;;;;;;;;;;5075941;28;20440;-77
2021/11/07 08:18:05;;;;;;;5.50;2.25;;;;;;;;;;5076298;28;20489;-78
2021/11/07 08:20:30;;;;;;;4.97;2.25;;;;;;;;;;5076292;28;20075;-77
2021/11/07 08:22:56;;;;;;;4.53;1.77;;;;;;;;;;5077276;28;20036;-79
2021/11/07 08:25:24;;;;;;;5.70;2.20;;;;;;;;;;5078492;28;20371;-79
2021/11/07 08:27:52;;;;;;;6.75;1.75;;;;;;;;;;5078639;28;20044;-76
2021/11/07 08:30:22;;;;;;;3.97;1.85;;;;;;;;;;5057113;28;20108;-77
2021/11/07 08:32:48;;;;;;;6.07;2.55;;;;;;;;;;5055742;28;20428;-77
2021/11/07 08:35:14;;;;;;;8.35;2.10;;;;;;;;;;5054686;28;20124;-77
2021/11/07 08:37:45;;;;;;;4.30;2.00;;;;;;;;;;5056465;28;20056;-78
2021/11/07 08:40:16;;;;;;;9.60;2.33;;;;;;;;;;5055225;28;20045;-77
2021/11/07 08:42:52;;;;;;;7.80;2.28;;;;;;;;;;5054969;28;20140;-75
2021/11/07 09:04:26;;;;;;;12.30;3.00;;;;;;;;;;5055815;28;20118;-76
2021/11/07 09:09:26;;;;;;;11.85;3.35;;;;;;;;;;5053978;28;20047;-77
2021/11/07 09:11:56;;;;;;;12.98;3.13;;;;;;;;;;5054875;28;20040;-76
2021/11/07 09:14:35;;;;;;;13.07;2.90;;;;;;;;;;5057716;28;20039;-78
2021/11/07 09:17:02;;;;;;;15.30;3.15;;;;;;;;;;5055125;28;20041;-77
2021/11/07 09:19:29;;;;;;;17.23;3.45;;;;;;;;;;5054979;28;20103;-76
2021/11/07 09:22:14;;;;;;;17.42;3.58;;;;;;;;;;5054743;28;20029;-76
2021/11/07 09:24:56;;;;;;;16.15;4.57;;;;;;;;;;5054246;28;20044;-75
2021/11/07 09:27:27;;;;;;;12.60;3.33;;;;;;;;;;5054820;28;20479;-78
2021/11/07 09:30:03;;;;;;;19.85;3.83;;;;;;;;;;5056128;28;20028;-77
2021/11/07 09:38:23;;;;;;;15.63;3.35;;;;;;;;;;5034878;28;20037;-76
2021/11/07 09:41:06;;;;;;;15.18;3.33;;;;;;;;;;5042606;28;20116;-75
2021/11/07 09:43:50;;;;;;;11.00;3.15;;;;;;;;;;5053203;28;20061;-75
2021/11/07 09:46:30;;;;;;;24.67;4.30;;;;;;;;;;5053599;28;20449;-77
2021/11/07 09:48:59;;;;;;;14.40;3.65;;;;;;;;;;5051301;28;20044;-77
2021/11/07 09:51:32;;;;;;;18.65;3.72;;;;;;;;;;5053466;28;20165;-77
2021/11/07 09:53:58;;;;;;;22.55;3.85;;;;;;;;;;5052312;28;20036;-77
2021/11/07 09:56:24;;;;;;;20.13;3.88;;;;;;;;;;5051031;28;20043;-77
2021/11/07 09:58:52;;;;;;;15.55;3.40;;;;;;;;;;5044444;28;20077;-77
2021/11/07 10:01:18;;;;;;;22.50;3.60;;;;;;;;;;5043201;28;20032;-76
2021/11/07 10:03:45;;;;;;;15.05;4.05;;;;;;;;;;5045106;28;20380;-77
2021/11/07 10:06:29;;;;;;;14.82;4.15;;;;;;;;;;5043608;28;20068;-77
2021/11/07 10:09:00;;;;;;;17.17;4.25;;;;;;;;;;5043902;28;20030;-76
2021/11/07 10:11:41;;;;;;;12.23;3.50;;;;;;;;;;5041337;28;20069;-78
2021/11/07 10:14:17;;;;;;;22.25;4.32;;;;;;;;;;5042644;28;20033;-76
2021/11/07 10:16:46;;;;;;;16.13;4.00;;;;;;;;;;5043299;28;20041;-78
2021/11/07 10:19:27;;;;;;;15.57;4.05;;;;;;;;;;5044110;28;20033;-78
2021/11/07 10:21:53;;;;;;;24.13;4.35;;;;;;;;;;5043573;28;20112;-77
2021/11/07 10:24:28;;;;;;;16.65;3.60;;;;;;;;;;5042565;28;20108;-77
2021/11/07 10:27:03;;;;;;;16.03;3.37;;;;;;;;;;5041856;28;20119;-76
2021/11/07 10:29:46;;;;;;;10.05;3.28;;;;;;;;;;5043226;28;20112;-76
2021/11/07 10:32:30;;;;;;;19.98;3.55;;;;;;;;;;5044734;28;20513;-76
2021/11/07 10:35:46;;;;;;;34.75;5.30;;;;;;;;;;5051320;28;20051;-76
2021/11/07 10:44:39;;;;;;;18.83;4.05;;;;;;;;;;5052697;28;20049;-76
2021/11/07 10:47:20;;;;;;;14.75;3.65;;;;;;;;;;5053008;28;20049;-76
2021/11/07 10:52:32;;;;;;;16.48;4.15;;;;;;;;;;5052577;28;20094;-77
2021/11/07 10:54:59;;;;;;;15.40;4.10;;;;;;;;;;5053066;28;20029;-76
2021/11/07 10:57:29;;;;;;;18.48;4.70;;;;;;;;;;5053237;28;20116;-77
2021/11/07 11:00:12;;;;;;;15.00;3.60;;;;;;;;;;5052903;28;20044;-76
2021/11/07 11:02:56;;;;;;;18.55;3.60;;;;;;;;;;5050854;28;20090;-76
2021/11/07 11:05:37;;;;;;;16.25;3.53;;;;;;;;;;5053514;28;20372;-76
2021/11/07 11:08:22;;;;;;;17.30;4.13;;;;;;;;;;5055495;28;20029;-76
2021/11/07 11:16:19;;;;;;;17.08;3.28;;;;;;;;;;5057047;28;20037;-76
2021/11/07 11:19:15;;;;;;;15.38;3.78;;;;;;;;;;5055173;28;20033;-76
2021/11/07 11:26:45;;;;;;;13.75;4.15;;;;;;;;;;5055744;28;20028;-76
2021/11/07 11:31:55;;;;;;;16.92;3.72;;;;;;;;;;5055945;28;20554;-75
2021/11/07 11:34:26;;;;;;;19.88;4.30;;;;;;;;;;5056319;28;20040;-76
2021/11/07 11:37:00;;;;;;;20.45;3.97;;;;;;;;;;5056014;28;20478;-75
2021/11/07 11:39:33;;;;;;;14.77;4.50;;;;;;;;;;5048270;28;20041;-76
2021/11/07 11:42:13;;;;;;;17.00;4.18;;;;;;;;;;5053072;28;20045;-75
2021/11/07 11:44:41;;;;;;;15.60;3.55;;;;;;;;;;5055363;28;20025;-76
2021/11/07 11:47:55;;;;;;;18.33;3.55;;;;;;;;;;5055815;28;20039;-74
2021/11/07 11:50:30;;;;;;;17.50;3.60;;;;;;;;;;5055296;28;20051;-76
2021/11/07 11:58:15;;;;;;;14.98;3.50;;;;;;;;;;5056586;28;20029;-77
2021/11/07 12:01:10;;;;;;;15.40;3.77;;;;;;;;;;5056097;28;20128;-76
2021/11/07 12:06:33;;;;;;;17.42;3.92;;;;;;;;;;5056798;28;20132;-77
2021/11/07 12:12:07;;;;;;;17.95;3.03;;;;;;;;;;5057147;28;20052;-76
2021/11/07 12:14:56;;;;;;;16.77;3.63;;;;;;;;;;5054964;28;20041;-76
2021/11/07 12:17:27;;;;;;;16.88;3.53;;;;;;;;;;5054710;28;20040;-75
2021/11/07 12:19:52;;;;;;;18.65;3.65;;;;;;;;;;5055101;28;20494;-75
2021/11/07 12:22:25;;;;;;;14.20;2.78;;;;;;;;;;5056702;28;20033;-75
2021/11/07 12:24:51;;;;;;;11.65;2.90;;;;;;;;;;5055739;28;20124;-75
2021/11/07 12:27:26;;;;;;;14.57;3.13;;;;;;;;;;5057142;28;20108;-75
2021/11/07 12:30:22;;;;;;;20.55;3.70;;;;;;;;;;5057326;28;20037;-75
2021/11/07 12:32:50;;;;;;;19.23;3.75;;;;;;;;;;5057213;28;20068;-74
2021/11/07 12:35:34;;;;;;;11.30;3.03;;;;;;;;;;5055640;28;20478;-74
2021/11/07 12:40:52;;;;;;;19.42;4.80;;;;;;;;;;5056160;28;20048;-76
2021/11/07 12:43:22;;;;;;;14.90;3.00;;;;;;;;;;5057887;28;20052;-77
2021/11/07 12:45:53;;;;;;;20.42;3.50;;;;;;;;;;5057477;28;20037;-78
2021/11/07 12:48:39;;;;;;;13.48;2.92;;;;;;;;;;5057022;28;20467;-76
2021/11/07 12:51:08;;;;;;;24.05;3.55;;;;;;;;;;5056222;28;20040;-74
2021/11/07 12:54:06;;;;;;;15.90;3.10;;;;;;;;;;5055264;28;20101;-75
2021/11/07 12:56:49;;;;;;;21.90;3.83;;;;;;;;;;5052164;28;20048;-76
2021/11/07 12:59:30;;;;;;;20.95;4.10;;;;;;;;;;5054204;28;20051;-75
2021/11/07 13:02:05;;;;;;;22.92;3.38;;;;;;;;;;5054707;28;20056;-75
2021/11/07 13:04:37;;;;;;;14.35;3.47;;;;;;;;;;5055041;28;20040;-75
2021/11/07 13:07:03;;;;;;;12.60;3.17;;;;;;;;;;5055074;28;20029;-75
2021/11/07 13:09:40;;;;;;;20.85;4.00;;;;;;;;;;5053951;28;20045;-75
2021/11/07 13:12:18;;;;;;;13.18;3.00;;;;;;;;;;5054933;28;20040;-75
2021/11/07 13:15:26;;;;;;;13.77;3.17;;;;;;;;;;5053569;28;20045;-75
2021/11/07 13:28:39;;;;;;;17.33;3.55;;;;;;;;;;5051136;28;20044;-75
2021/11/07 13:33:41;;;;;;;16.02;3.30;;;;;;;;;;5054521;28;20033;-75
2021/11/07 13:36:10;;;;;;;14.23;3.05;;;;;;;;;;5054568;28;20044;-75
2021/11/07 13:38:53;;;;;;;17.00;3.22;;;;;;;;;;5054056;28;20398;-74
2021/11/07 13:41:23;;;;;;;15.35;3.28;;;;;;;;;;5034205;28;20100;-75
2021/11/07 13:44:01;;;;;;;17.55;3.30;;;;;;;;;;5034236;28;20049;-75
2021/11/07 13:46:27;;;;;;;17.45;3.45;;;;;;;;;;5046074;28;20036;-75
2021/11/07 13:49:02;;;;;;;10.90;3.45;;;;;;;;;;5054135;28;20094;-75
2021/11/07 13:51:28;;;;;;;13.23;2.88;;;;;;;;;;5053826;28;20467;-75
2021/11/07 13:53:59;;;;;;;16.85;3.15;;;;;;;;;;5053148;28;20025;-75
2021/11/07 13:56:25;;;;;;;17.80;3.90;;;;;;;;;;5054074;28;20463;-75
2021/11/07 13:58:51;;;;;;;19.80;3.33;;;;;;;;;;5054151;28;20532;-75
2021/11/07 14:01:17;;;;;;;22.33;4.47;;;;;;;;;;5054078;28;20040;-75
2021/11/07 14:03:43;;;;;;;12.80;2.95;;;;;;;;;;5053803;28;20037;-75
2021/11/07 14:06:14;;;;;;;11.02;2.78;;;;;;;;;;5052351;28;20402;-75
2021/11/07 14:08:46;;;;;;;18.67;3.70;;;;;;;;;;5053453;28;20048;-75
2021/11/07 14:11:13;;;;;;;19.05;3.28;;;;;;;;;;5051297;28;20375;-75
2021/11/07 14:13:48;;;;;;;17.13;3.38;;;;;;;;;;5053664;28;20475;-75
2021/11/07 14:16:15;;;;;;;14.38;3.13;;;;;;;;;;5053641;28;20033;-75
2021/11/07 14:18:46;;;;;;;14.77;3.58;;;;;;;;;;5052702;28;20108;-75
2021/11/07 14:21:14;;;;;;;19.67;4.55;;;;;;;;;;5052167;28;20426;-75
2021/11/07 14:23:53;;;;;;;17.40;3.58;;;;;;;;;;5053363;28;20099;-75
2021/11/07 14:26:26;;;;;;;14.43;3.58;;;;;;;;;;5053263;28;20490;-75
2021/11/07 14:29:12;;;;;;;11.88;2.65;;;;;;;;;;5053148;28;20041;-75
2021/11/07 14:34:18;;;;;;;15.40;3.30;;;;;;;;;;5052477;28;20028;-75
2021/11/07 14:37:04;;;;;;;9.30;2.25;;;;;;;;;;5053268;28;20040;-75
2021/11/07 14:42:49;;;;;;;9.60;2.20;;;;;;;;;;5052465;28;20403;-75
2021/11/07 14:54:03;;;;;;;14.77;2.50;;;;;;;;;;5052572;28;20045;-75
2021/11/07 14:59:45;;;;;;;13.25;2.40;;;;;;;;;;5053245;28;20043;-75
2021/11/07 15:02:27;;;;;;;9.00;2.30;;;;;;;;;;5051411;28;20446;-75
2021/11/07 15:04:57;;;;;;;11.80;2.92;;;;;;;;;;5051962;28;20032;-75
2021/11/07 15:07:45;;;;;;;18.40;3.00;;;;;;;;;;5052958;28;20047;-75
2021/11/07 15:16:07;;;;;;;13.05;2.75;;;;;;;;;;5053175;28;20044;-75
2021/11/07 15:18:44;;;;;;;16.52;2.58;;;;;;;;;;5052967;28;20040;-75
2021/11/07 15:21:37;;;;;;;20.88;3.05;;;;;;;;;;5051893;28;20037;-75
2021/11/07 15:24:21;;;;;;;10.20;2.40;;;;;;;;;;5052851;28;20033;-75
2021/11/07 15:26:56;;;;;;;9.45;2.42;;;;;;;;;;5051630;28;20036;-74
2021/11/07 15:29:43;;;;;;;12.25;2.35;;;;;;;;;;5051750;28;20033;-74
2021/11/07 15:32:15;;;;;;;17.40;2.80;;;;;;;;;;5052693;28;20048;-74
2021/11/07 15:34:43;;;;;;;12.45;3.50;;;;;;;;;;5052888;28;20033;-75
2021/11/07 15:37:23;;;;;;;28.63;9.73;;;;;;;;;;5052390;28;20025;-74
2021/11/07 15:39:50;;;;;;;24.23;7.78;;;;;;;;;;5051637;28;20037;-74
2021/11/07 15:42:23;;;;;;;15.23;3.17;;;;;;;;;;5052405;28;20124;-74
2021/11/07 15:44:57;;;;;;;10.95;2.45;;;;;;;;;;5052712;28;20045;-76
2021/11/07 15:47:27;;;;;;;10.95;2.60;;;;;;;;;;5052576;28;20129;-76
2021/11/07 15:50:08;;;;;;;11.90;2.60;;;;;;;;;;5052722;28;20520;-76
2021/11/07 15:52:39;;;;;;;15.35;3.10;;;;;;;;;;5052068;28;20683;-76
2021/11/07 15:55:13;;;;;;;10.00;2.45;;;;;;;;;;5056115;28;20036;-75
2021/11/07 16:13:32;;;;;;;17.67;3.95;;;;;;;;;;5046292;28;20038;-76
2021/11/07 16:16:32;;;;;;;15.93;3.47;;;;;;;;;;5044765;28;20051;-76
2021/11/07 16:19:00;;;;;;;11.63;2.70;;;;;;;;;;5034639;28;20088;-76
2021/11/07 16:21:27;;;;;;;15.02;2.92;;;;;;;;;;5042581;28;20030;-76
2021/11/07 16:23:53;;;;;;;14.77;3.05;;;;;;;;;;5050009;28;20047;-76
2021/11/07 16:26:19;;;;;;;18.60;3.28;;;;;;;;;;5055858;28;20033;-76
2021/11/07 16:28:45;;;;;;;10.60;3.00;;;;;;;;;;5055609;28;20033;-76
2021/11/07 16:31:15;;;;;;;13.45;3.08;;;;;;;;;;5055827;28;20087;-76
2021/11/07 16:33:51;;;;;;;13.38;3.17;;;;;;;;;;5055575;28;20043;-76
2021/11/07 16:36:20;;;;;;;23.75;4.53;;;;;;;;;;5054503;28;20091;-76
2021/11/07 16:38:56;;;;;;;13.65;3.22;;;;;;;;;;5055324;28;20029;-76
2021/11/07 16:41:30;;;;;;;15.30;4.53;;;;;;;;;;5054661;28;20079;-77
2021/11/07 16:43:57;;;;;;;10.32;2.30;;;;;;;;;;5056128;28;20080;-77
2021/11/07 16:46:27;;;;;;;7.65;1.90;;;;;;;;;;5057894;28;20414;-78
2021/11/07 16:48:56;;;;;;;12.07;2.60;;;;;;;;;;5055703;28;20037;-77
2021/11/07 16:51:25;;;;;;;9.88;2.28;;;;;;;;;;5054532;28;20032;-79
2021/11/07 16:53:58;;;;;;;10.05;2.38;;;;;;;;;;5041881;28;20124;-77
2021/11/07 16:56:26;;;;;;;15.98;2.33;;;;;;;;;;5034559;28;20112;-77
2021/11/07 16:59:09;;;;;;;11.48;2.10;;;;;;;;;;5034108;28;20033;-77
2021/11/07 17:01:56;;;;;;;10.68;2.05;;;;;;;;;;5034110;28;20040;-78
2021/11/07 17:04:26;;;;;;;14.52;3.38;;;;;;;;;;5052670;28;20033;-78
2021/11/07 17:11:49;;;;;;;10.60;2.78;;;;;;;;;;5055029;28;20048;-77
2021/11/07 17:14:15;;;;;;;7.57;1.95;;;;;;;;;;5054796;28;20456;-77
2021/11/07 17:19:19;;;;;;;9.50;2.58;;;;;;;;;;5054272;28;20037;-77
2021/11/07 17:21:54;;;;;;;16.83;2.60;;;;;;;;;;5054553;28;20463;-77
2021/11/07 17:26:49;;;;;;;11.18;3.95;;;;;;;;;;5054600;28;20041;-78
2021/11/07 17:29:16;;;;;;;9.43;2.25;;;;;;;;;;5055085;28;20037;-76
2021/11/07 17:34:22;;;;;;;14.23;2.65;;;;;;;;;;5057487;28;20063;-77
2021/11/07 17:36:54;;;;;;;11.43;2.15;;;;;;;;;;5055738;28;20033;-77